Time;durP1;ratioP1;P1;durP2;ratioP2;P2;SDS_P1;SDS_P2;PMS_P1;PMS_P2;Temp;Humidity;BMP_temperature;BMP_pressure;BME280_temperature;BME280_humidity;BME280_pressure;Samples;Min_cycle;Max_cycle;Signal;HPM_P1;HPM_P2
2021/10/16 00:02:06;;;;;;;5.88;3.72;;;;;;;10.70;68.85;101291.94;5010081;28;20026;-46
2021/10/16 00:04:32;;;;;;;5.95;3.25;;;;;;;10.70;68.66;101283.16;5010998;28;20026;-46
2021/10/16 00:06:57;;;;;;;8.23;3.50;;;;;;;10.69;68.68;101284.91;5007772;28;20365;-44
2021/10/16 00:09:22;;;;;;;3.55;3.17;;;;;;;10.69;68.64;101289.28;5007526;28;20392;-45
2021/10/16 00:11:47;;;;;;;5.72;3.53;;;;;;;10.69;68.70;101284.03;5009009;28;20018;-44
2021/10/16 00:14:13;;;;;;;4.80;3.33;;;;;;;10.68;68.44;101291.06;5004397;28;20033;-45
2021/10/16 00:16:38;;;;;;;4.45;3.45;;;;;;;10.66;68.67;101290.19;5009417;28;20476;-46
2021/10/16 00:19:05;;;;;;;3.50;2.75;;;;;;;10.67;68.84;101277.88;5010027;28;20121;-46
2021/10/16 00:21:30;;;;;;;5.05;3.58;;;;;;;10.64;68.59;101279.63;5007659;28;20072;-46
2021/10/16 00:23:56;;;;;;;4.63;3.00;;;;;;;10.64;68.50;101287.53;5004421;28;20046;-45
2021/10/16 00:26:21;;;;;;;6.35;3.33;;;;;;;10.64;68.52;101287.53;5013675;28;20061;-45
2021/10/16 00:28:46;;;;;;;5.07;3.15;;;;;;;10.63;68.42;101285.78;5007903;28;20034;-45
2021/10/16 00:31:12;;;;;;;3.33;2.67;;;;;;;10.63;68.24;101285.78;5006551;28;20464;-46
2021/10/16 00:33:37;;;;;;;3.63;2.72;;;;;;;10.62;68.24;101283.16;5009746;28;20034;-46
2021/10/16 00:36:03;;;;;;;4.45;2.63;;;;;;;10.62;68.50;101288.41;5010264;28;20516;-45
2021/10/16 00:38:28;;;;;;;4.55;3.25;;;;;;;10.61;68.48;101284.91;5008967;28;20030;-46
2021/10/16 00:40:53;;;;;;;4.55;2.35;;;;;;;10.60;68.44;101291.06;5009287;28;20070;-46
2021/10/16 00:43:19;;;;;;;4.70;2.75;;;;;;;10.60;68.59;101288.41;5011747;28;20468;-46
2021/10/16 00:45:44;;;;;;;3.50;2.83;;;;;;;10.60;67.97;101284.91;5008069;28;20046;-45
2021/10/16 00:48:09;;;;;;;5.78;3.20;;;;;;;10.59;68.09;101294.59;5010604;28;20045;-45
2021/10/16 00:50:35;;;;;;;5.43;2.97;;;;;;;10.57;68.35;101291.06;5012653;28;20053;-46
2021/10/16 00:53:00;;;;;;;4.22;2.58;;;;;;;10.56;68.27;101281.38;5011035;28;20040;-46
2021/10/16 00:55:26;;;;;;;5.10;2.58;;;;;;;10.56;68.27;101285.78;5010332;28;20423;-46
2021/10/16 00:57:53;;;;;;;4.20;2.72;;;;;;;10.55;68.13;101281.38;5010938;28;20503;-46
2021/10/16 01:00:18;;;;;;;3.85;2.80;;;;;;;10.55;68.28;101284.91;5039764;28;20029;-45
2021/10/16 01:02:44;;;;;;;3.65;2.60;;;;;;;10.55;68.12;101287.53;5046133;28;20094;-46
2021/10/16 01:05:10;;;;;;;4.35;2.88;;;;;;;10.56;68.04;101291.03;5012708;28;20026;-44
2021/10/16 01:07:39;;;;;;;4.45;3.00;;;;;;;10.54;68.08;101282.28;5014730;28;20033;-46
2021/10/16 01:10:06;;;;;;;3.38;2.83;;;;;;;10.51;68.23;101281.38;5015622;28;20025;-46
2021/10/16 01:12:31;;;;;;;4.47;3.08;;;;;;;10.51;68.11;101281.38;5013310;28;20033;-46
2021/10/16 01:15:02;;;;;;;5.93;2.90;;;;;;;10.51;68.11;101286.66;5013477;28;20022;-45
2021/10/16 01:17:27;;;;;;;5.38;2.90;;;;;;;10.50;68.12;101284.91;5011853;28;20026;-45
2021/10/16 01:20:01;;;;;;;3.25;2.22;;;;;;;10.49;68.12;101283.16;5041257;28;20073;-46
2021/10/16 01:22:27;;;;;;;4.43;2.90;;;;;;;10.49;68.19;101283.16;5010475;28;20033;-46
2021/10/16 01:24:53;;;;;;;5.50;3.08;;;;;;;10.49;67.95;101284.88;5015342;28;20067;-44
2021/10/16 01:27:18;;;;;;;5.30;3.35;;;;;;;10.47;67.98;101279.63;5009570;28;20026;-46
2021/10/16 01:29:44;;;;;;;4.43;2.95;;;;;;;10.47;68.08;101284.88;5013972;28;20589;-46
2021/10/16 01:32:09;;;;;;;3.83;2.20;;;;;;;10.46;67.89;101271.69;5012005;28;20117;-46
2021/10/16 01:34:35;;;;;;;3.20;2.47;;;;;;;10.45;67.85;101276.13;5011947;28;20030;-45
2021/10/16 01:37:00;;;;;;;3.13;2.83;;;;;;;10.45;67.96;101275.22;5010185;28;20027;-45
2021/10/16 01:39:26;;;;;;;4.07;3.08;;;;;;;10.43;68.06;101276.97;5013238;28;20472;-45
2021/10/16 01:41:51;;;;;;;3.97;2.75;;;;;;;10.41;67.94;101274.31;5010998;28;20025;-45
2021/10/16 01:44:17;;;;;;;3.92;2.80;;;;;;;10.44;67.87;101283.97;5011627;28;20029;-45
2021/10/16 01:46:43;;;;;;;5.75;2.80;;;;;;;10.42;67.86;101280.44;5009685;28;20029;-45
2021/10/16 01:49:10;;;;;;;4.45;3.30;;;;;;;10.40;67.68;101273.44;5011101;28;20038;-46
2021/10/16 01:51:36;;;;;;;3.28;2.40;;;;;;;10.40;67.67;101272.53;5011613;28;20569;-45
2021/10/16 01:54:01;;;;;;;3.30;3.00;;;;;;;10.39;67.52;101276.94;5013169;28;20581;-45
2021/10/16 01:56:27;;;;;;;3.47;2.58;;;;;;;10.38;67.88;101275.16;5009410;28;20026;-46
2021/10/16 01:58:52;;;;;;;4.72;2.80;;;;;;;10.38;67.81;101269.88;5014110;28;20028;-46
2021/10/16 02:01:18;;;;;;;6.07;2.60;;;;;;;10.38;67.64;101269.88;5011516;28;20037;-45
2021/10/16 02:03:43;;;;;;;4.75;2.92;;;;;;;10.36;67.60;101273.41;5013399;28;20108;-46
2021/10/16 02:06:08;;;;;;;3.45;2.38;;;;;;;10.37;67.82;101277.84;5010119;28;20383;-46
2021/10/16 02:08:34;;;;;;;3.38;2.50;;;;;;;10.36;67.62;101291.88;5013830;28;20026;-45
2021/10/16 02:11:00;;;;;;;4.50;2.58;;;;;;;10.34;67.54;101280.47;5013373;28;20427;-45
2021/10/16 02:13:25;;;;;;;5.85;2.63;;;;;;;10.34;67.59;101283.09;5011882;28;20030;-46
2021/10/16 02:15:50;;;;;;;3.75;2.83;;;;;;;10.33;67.62;101287.47;5011447;28;20030;-45
2021/10/16 02:18:15;;;;;;;2.65;2.45;;;;;;;10.33;67.53;101291.84;5010300;28;20136;-45
2021/10/16 02:20:41;;;;;;;6.95;2.97;;;;;;;10.32;67.77;101291.00;5008691;28;20150;-46
2021/10/16 02:23:06;;;;;;;4.18;2.60;;;;;;;10.33;67.63;101297.13;5011857;28;20391;-44
2021/10/16 02:25:31;;;;;;;4.43;2.90;;;;;;;10.31;67.64;101293.63;5007523;28;20038;-46
2021/10/16 02:27:57;;;;;;;2.67;2.47;;;;;;;10.28;67.37;101289.22;5011880;28;20026;-46
2021/10/16 02:30:22;;;;;;;4.55;3.22;;;;;;;10.27;67.63;101296.25;5011864;28;20445;-46
2021/10/16 02:32:47;;;;;;;5.93;2.40;;;;;;;10.27;67.33;101292.72;5013553;28;20057;-46
2021/10/16 02:35:13;;;;;;;4.05;2.92;;;;;;;10.26;67.54;101302.41;5006100;28;20460;-46
2021/10/16 02:37:38;;;;;;;3.28;2.80;;;;;;;10.26;67.24;101299.78;5014548;28;20494;-45
2021/10/16 02:40:04;;;;;;;4.43;2.83;;;;;;;10.26;67.30;101298.88;5010231;28;20080;-45
2021/10/16 02:42:29;;;;;;;4.00;2.65;;;;;;;10.25;67.40;101303.28;5009780;28;20559;-45
2021/10/16 02:44:56;;;;;;;3.13;2.47;;;;;;;10.25;67.41;101305.03;5010308;28;20042;-46
2021/10/16 02:47:21;;;;;;;3.20;2.95;;;;;;;10.24;67.22;101298.00;5012636;28;20018;-45
2021/10/16 02:49:46;;;;;;;4.00;2.75;;;;;;;10.23;67.43;101306.78;5012123;28;20021;-44
2021/10/16 02:52:12;;;;;;;5.63;2.97;;;;;;;10.22;67.19;101305.03;5012193;28;20403;-45
2021/10/16 02:54:37;;;;;;;5.15;2.47;;;;;;;10.20;67.33;101312.94;5010733;28;20032;-46
2021/10/16 02:57:02;;;;;;;5.05;3.05;;;;;;;10.20;67.26;101318.19;5009949;28;20054;-45
2021/10/16 02:59:28;;;;;;;6.90;2.80;;;;;;;10.19;67.15;101310.28;5013389;28;20096;-45
2021/10/16 03:01:53;;;;;;;4.10;2.70;;;;;;;10.18;67.44;101317.34;5011220;28;20030;-45
2021/10/16 03:04:18;;;;;;;3.40;2.60;;;;;;;10.18;67.08;101319.06;5011321;28;20038;-45
2021/10/16 03:06:44;;;;;;;4.88;2.58;;;;;;;10.18;67.44;101316.44;5007688;28;20029;-45
2021/10/16 03:09:09;;;;;;;4.05;2.60;;;;;;;10.18;66.97;101313.81;5011079;28;20108;-46
2021/10/16 03:11:34;;;;;;;3.80;2.40;;;;;;;10.16;67.06;101319.06;4994915;28;20026;-45
2021/10/16 03:14:01;;;;;;;3.25;2.95;;;;;;;10.16;67.32;101326.09;5008871;28;20093;-46
2021/10/16 03:16:26;;;;;;;4.03;2.78;;;;;;;10.13;67.07;101319.94;5014230;28;20076;-45
2021/10/16 03:18:53;;;;;;;3.95;3.13;;;;;;;10.14;67.17;101323.47;5021327;28;21480;-46
2021/10/16 03:21:19;;;;;;;3.33;2.78;;;;;;;10.14;67.18;101320.84;5008753;28;20674;-45
2021/10/16 03:23:44;;;;;;;4.20;2.55;;;;;;;10.13;66.99;101314.69;5014206;28;20021;-46
2021/10/16 03:26:09;;;;;;;3.10;2.45;;;;;;;10.11;67.02;101313.78;5009993;28;20068;-45
2021/10/16 03:28:35;;;;;;;4.45;3.00;;;;;;;10.10;66.92;101308.50;5009803;28;20156;-45
2021/10/16 03:31:00;;;;;;;4.63;3.03;;;;;;;10.10;66.88;101322.56;5012582;28;20149;-46
2021/10/16 03:33:26;;;;;;;3.63;2.63;;;;;;;10.08;67.18;101313.78;5008773;28;20033;-44
2021/10/16 03:35:51;;;;;;;5.03;2.80;;;;;;;10.08;66.78;101319.06;5009736;28;20025;-46
2021/10/16 03:38:16;;;;;;;4.68;2.88;;;;;;;10.08;67.00;101323.44;5010769;28;20114;-45
2021/10/16 03:40:42;;;;;;;2.88;2.55;;;;;;;10.07;66.91;101319.06;5010561;28;20029;-46
2021/10/16 03:43:07;;;;;;;2.88;2.60;;;;;;;10.06;66.84;101327.81;5041695;28;20060;-46
2021/10/16 03:45:32;;;;;;;2.60;2.40;;;;;;;10.06;67.03;101331.34;5035479;28;20033;-45
2021/10/16 03:47:57;;;;;;;3.63;3.33;;;;;;;10.06;66.82;101331.34;5010200;28;20025;-45
2021/10/16 03:50:23;;;;;;;3.28;2.95;;;;;;;10.05;67.04;101339.25;5009208;28;20022;-45
2021/10/16 03:52:48;;;;;;;2.83;2.63;;;;;;;10.05;66.87;101326.06;5006674;28;20026;-45
2021/10/16 03:55:13;;;;;;;4.38;2.72;;;;;;;10.02;66.87;101329.56;5012701;28;20022;-45
2021/10/16 03:57:39;;;;;;;3.22;2.92;;;;;;;10.02;67.08;101324.31;5012753;28;20033;-46
2021/10/16 04:00:11;;;;;;;4.22;2.78;;;;;;;10.02;67.01;101334.84;5012020;28;20045;-46
2021/10/16 04:02:38;;;;;;;5.00;3.00;;;;;;;10.02;67.02;101329.56;5011081;28;20131;-46
2021/10/16 04:05:03;;;;;;;3.72;2.72;;;;;;;10.01;67.08;101328.69;5004334;28;20018;-45
2021/10/16 04:07:28;;;;;;;3.75;2.65;;;;;;;10.01;67.02;101323.41;5010503;28;20029;-44
2021/10/16 04:09:54;;;;;;;4.13;3.25;;;;;;;10.00;66.90;101326.03;5006852;28;20250;-45
2021/10/16 04:12:19;;;;;;;3.40;3.05;;;;;;;10.00;67.12;101331.31;5011500;28;20026;-44
2021/10/16 04:14:44;;;;;;;2.75;2.55;;;;;;;9.98;67.10;101327.81;5008746;28;20103;-45
2021/10/16 04:17:10;;;;;;;3.83;3.38;;;;;;;9.99;67.12;101332.19;5011593;28;20034;-46
2021/10/16 04:19:35;;;;;;;4.95;2.80;;;;;;;9.98;66.96;101327.81;5008541;28;20037;-45
2021/10/16 04:22:00;;;;;;;5.18;2.72;;;;;;;9.97;67.17;101320.78;5009233;28;20487;-45
2021/10/16 04:24:25;;;;;;;4.40;3.17;;;;;;;9.96;67.00;101325.16;5012383;28;20472;-46
2021/10/16 04:26:51;;;;;;;5.18;2.92;;;;;;;9.96;67.25;101329.53;5005714;28;20038;-45
2021/10/16 04:29:16;;;;;;;3.85;3.10;;;;;;;9.95;67.13;101339.22;5007261;28;20033;-45
2021/10/16 04:31:41;;;;;;;4.63;3.13;;;;;;;9.96;67.10;101334.81;5016497;28;20076;-45
2021/10/16 04:34:09;;;;;;;5.10;3.38;;;;;;;9.93;67.04;101332.16;5011105;28;20080;-44
2021/10/16 04:36:34;;;;;;;4.63;3.25;;;;;;;9.93;67.00;101340.06;5015980;28;20193;-45
2021/10/16 04:38:59;;;;;;;4.05;2.88;;;;;;;9.93;66.98;101340.06;5011866;28;20140;-46
2021/10/16 04:41:25;;;;;;;3.88;3.13;;;;;;;9.92;67.17;101344.47;5044845;28;20038;-45
2021/10/16 04:43:50;;;;;;;4.78;3.58;;;;;;;9.91;67.01;101337.44;5011137;28;20072;-45
2021/10/16 04:46:16;;;;;;;3.60;3.13;;;;;;;9.91;67.20;101333.91;5009178;28;20115;-45
2021/10/16 04:48:42;;;;;;;4.85;3.63;;;;;;;9.90;67.07;101342.72;5008912;28;20038;-44
2021/10/16 04:51:07;;;;;;;4.35;3.20;;;;;;;9.89;67.17;101336.53;5011288;28;20034;-45
2021/10/16 04:53:33;;;;;;;4.90;3.58;;;;;;;9.89;67.21;101336.53;5011596;28;20021;-45
2021/10/16 04:55:58;;;;;;;6.22;3.45;;;;;;;9.88;67.30;101338.28;5010325;28;21169;-44
2021/10/16 04:58:23;;;;;;;4.65;3.45;;;;;;;9.88;67.19;101338.28;5014351;28;20060;-46
2021/10/16 05:00:49;;;;;;;4.93;3.72;;;;;;;9.87;67.04;101339.16;5010842;28;20030;-45
2021/10/16 05:03:14;;;;;;;4.10;3.55;;;;;;;9.86;67.07;101350.59;5040849;28;20056;-45
2021/10/16 05:05:39;;;;;;;4.65;3.35;;;;;;;9.85;67.30;101338.28;5014897;28;20060;-46
2021/10/16 05:08:06;;;;;;;4.72;3.42;;;;;;;9.86;67.24;101340.06;5012610;28;20172;-46
2021/10/16 05:10:31;;;;;;;3.95;3.55;;;;;;;9.84;67.34;101341.78;5011148;28;20414;-45
2021/10/16 05:12:57;;;;;;;5.13;3.38;;;;;;;9.84;67.06;101336.50;5010005;28;20492;-46
2021/10/16 05:15:22;;;;;;;4.28;3.63;;;;;;;9.84;67.14;101347.06;5010443;28;20112;-45
2021/10/16 05:17:48;;;;;;;7.38;4.00;;;;;;;9.83;67.31;101339.13;5011444;28;20036;-45
2021/10/16 05:20:13;;;;;;;5.70;4.15;;;;;;;9.83;67.34;101339.13;5006097;28;20029;-46
2021/10/16 05:22:39;;;;;;;4.20;3.75;;;;;;;9.83;67.05;101340.03;5015115;28;20029;-44
2021/10/16 05:25:04;;;;;;;5.93;3.88;;;;;;;9.83;67.17;101342.66;5014388;28;20555;-45
2021/10/16 05:27:29;;;;;;;4.70;3.75;;;;;;;9.81;67.19;101336.53;5013116;28;20033;-46
2021/10/16 05:29:55;;;;;;;5.43;3.80;;;;;;;9.81;67.28;101347.06;5009653;28;20021;-44
2021/10/16 05:32:20;;;;;;;5.68;4.00;;;;;;;9.79;67.05;101346.16;5012544;28;20033;-46
2021/10/16 05:34:45;;;;;;;5.50;4.03;;;;;;;9.79;67.22;101346.16;5009411;28;20079;-45
2021/10/16 05:37:11;;;;;;;4.30;3.80;;;;;;;9.79;67.34;101350.53;5011670;28;20030;-45
2021/10/16 05:39:37;;;;;;;4.80;3.90;;;;;;;9.78;67.35;101349.69;5045213;28;20052;-45
2021/10/16 05:42:02;;;;;;;6.57;4.10;;;;;;;9.78;67.33;101352.31;5013006;28;20439;-45
2021/10/16 05:44:28;;;;;;;6.28;4.10;;;;;;;9.77;67.29;101350.53;5014252;28;20092;-46
2021/10/16 05:46:54;;;;;;;3.50;3.20;;;;;;;9.77;67.26;101354.94;5022984;28;20076;-46
2021/10/16 05:49:19;;;;;;;4.88;3.80;;;;;;;9.77;67.27;101365.47;5014249;28;20038;-46
2021/10/16 05:51:44;;;;;;;6.03;3.70;;;;;;;9.76;67.23;101367.22;5008640;28;20040;-45
2021/10/16 05:54:09;;;;;;;7.78;4.40;;;;;;;9.76;67.39;101375.13;5010318;28;20040;-45
2021/10/16 05:56:35;;;;;;;6.13;3.88;;;;;;;9.74;67.55;101371.59;5013002;28;20112;-46
2021/10/16 05:59:00;;;;;;;4.60;4.20;;;;;;;9.75;67.74;101378.63;5010895;28;20127;-46
2021/10/16 06:01:26;;;;;;;5.80;4.45;;;;;;;9.75;67.38;101381.25;5014761;28;20030;-45
2021/10/16 06:03:52;;;;;;;4.65;4.22;;;;;;;9.74;67.38;101382.16;5010893;28;20038;-45
2021/10/16 06:06:17;;;;;;;4.95;4.38;;;;;;;9.74;67.48;101395.31;5010419;28;20045;-44
2021/10/16 06:08:42;;;;;;;4.88;4.10;;;;;;;9.72;67.62;101394.41;5009802;28;20398;-45
2021/10/16 06:11:09;;;;;;;6.60;4.60;;;;;;;9.72;67.73;101395.31;5004762;28;20034;-45
2021/10/16 06:13:34;;;;;;;5.85;4.32;;;;;;;9.72;67.50;101397.06;5008628;28;20067;-44
2021/10/16 06:15:59;;;;;;;5.70;4.00;;;;;;;9.72;67.42;101391.78;5010140;28;20061;-45
2021/10/16 06:18:26;;;;;;;7.28;4.63;;;;;;;9.70;67.74;101396.19;5009271;28;20044;-45
2021/10/16 06:20:51;;;;;;;5.53;4.00;;;;;;;9.70;67.67;101402.31;5011879;28;20032;-46
2021/10/16 06:23:16;;;;;;;4.30;3.90;;;;;;;9.70;67.46;101401.44;5008126;28;20030;-45
2021/10/16 06:25:41;;;;;;;4.97;4.35;;;;;;;9.70;67.59;101406.72;5010392;28;20447;-45
2021/10/16 06:28:07;;;;;;;4.57;4.18;;;;;;;9.69;67.62;101415.47;5011084;28;20053;-45
2021/10/16 06:30:32;;;;;;;5.03;3.72;;;;;;;9.69;67.37;101412.81;5007575;28;20037;-46
2021/10/16 06:32:57;;;;;;;5.22;3.72;;;;;;;9.69;67.64;101420.72;5010338;28;20751;-46
2021/10/16 06:35:23;;;;;;;5.78;3.97;;;;;;;9.68;67.51;101422.50;5009609;28;20180;-44
2021/10/16 06:37:48;;;;;;;5.22;4.40;;;;;;;9.68;67.56;101424.25;4971208;28;20030;-45
2021/10/16 06:40:14;;;;;;;6.13;4.40;;;;;;;9.67;67.66;101419.84;5012164;28;20048;-45
2021/10/16 06:42:39;;;;;;;4.28;3.67;;;;;;;9.66;67.44;101426.88;5036825;28;20395;-45
2021/10/16 06:45:05;;;;;;;7.05;4.85;;;;;;;9.65;67.61;101424.22;5011931;28;20038;-46
2021/10/16 06:47:30;;;;;;;6.97;4.55;;;;;;;9.64;67.55;101428.63;5014508;28;20069;-46
2021/10/16 06:49:55;;;;;;;5.95;4.60;;;;;;;9.65;67.44;101424.22;5042722;28;20022;-46
2021/10/16 06:52:21;;;;;;;5.72;4.38;;;;;;;9.63;67.65;101424.22;5010016;28;20495;-45
2021/10/16 06:54:46;;;;;;;6.88;4.35;;;;;;;9.63;67.50;101422.47;5011982;28;20104;-45
2021/10/16 06:57:11;;;;;;;6.15;4.63;;;;;;;9.63;67.42;101425.09;5012466;28;20022;-46
2021/10/16 06:59:37;;;;;;;5.93;4.30;;;;;;;9.63;67.73;101430.38;5009944;28;20037;-45
2021/10/16 07:02:02;;;;;;;5.63;4.53;;;;;;;9.63;67.45;101429.47;5011266;28;20023;-46
2021/10/16 07:04:27;;;;;;;4.75;4.10;;;;;;;9.62;67.64;101427.72;5036808;28;20502;-46
2021/10/16 07:06:53;;;;;;;5.72;4.05;;;;;;;9.61;67.61;101432.09;5011962;28;20468;-45
2021/10/16 07:09:18;;;;;;;5.60;4.35;;;;;;;9.60;67.64;101438.25;5044425;28;20109;-45
2021/10/16 07:11:43;;;;;;;5.00;4.43;;;;;;;9.62;67.74;101446.16;5025548;28;20063;-45
2021/10/16 07:14:09;;;;;;;4.53;4.10;;;;;;;9.60;67.71;101446.13;5038727;28;20029;-45
2021/10/16 07:16:35;;;;;;;4.97;4.28;;;;;;;9.59;67.58;101443.50;5008691;28;20030;-46
2021/10/16 07:19:00;;;;;;;4.45;3.80;;;;;;;9.58;67.58;101445.25;5011691;28;20022;-45
2021/10/16 07:21:25;;;;;;;5.13;4.63;;;;;;;9.58;67.64;101442.63;5045263;28;20022;-45
2021/10/16 07:23:51;;;;;;;5.95;4.03;;;;;;;9.58;67.95;101440.00;5013254;28;20124;-44
2021/10/16 07:26:17;;;;;;;4.88;4.45;;;;;;;9.58;67.86;101442.63;5011122;28;20033;-45
2021/10/16 07:28:44;;;;;;;4.90;4.40;;;;;;;9.57;67.73;101443.47;5012903;28;20025;-46
2021/10/16 07:31:09;;;;;;;4.93;4.50;;;;;;;9.57;67.77;101453.16;5012608;28;20503;-45
2021/10/16 07:33:34;;;;;;;4.18;3.80;;;;;;;9.57;67.88;101456.66;5014394;28;20030;-45
2021/10/16 07:36:00;;;;;;;5.45;4.63;;;;;;;9.57;67.83;101453.16;5009991;28;20026;-46
2021/10/16 07:38:25;;;;;;;5.43;4.93;;;;;;;9.57;67.88;101453.16;5012601;28;20025;-44
2021/10/16 07:40:50;;;;;;;4.60;4.15;;;;;;;9.55;67.98;101455.78;5010358;28;20503;-46
2021/10/16 07:43:15;;;;;;;6.20;4.03;;;;;;;9.56;67.96;101449.63;5012352;28;20076;-45
2021/10/16 07:45:41;;;;;;;5.03;4.60;;;;;;;9.57;67.96;101448.75;5011858;28;20021;-46
2021/10/16 07:48:06;;;;;;;5.28;4.50;;;;;;;9.57;67.98;101458.41;5012859;28;20072;-46
2021/10/16 07:50:31;;;;;;;4.95;4.45;;;;;;;9.55;68.02;101455.78;5038697;28;20025;-46
2021/10/16 07:52:57;;;;;;;4.97;4.43;;;;;;;9.56;67.90;101457.53;5010746;28;20017;-46
2021/10/16 07:55:22;;;;;;;5.03;3.85;;;;;;;9.56;67.90;101470.69;5012344;28;20021;-46
2021/10/16 07:57:47;;;;;;;5.97;4.70;;;;;;;9.56;67.97;101465.44;5013453;28;20079;-46
2021/10/16 08:00:13;;;;;;;7.38;4.93;;;;;;;9.55;68.11;101463.66;5014133;28;20030;-46
2021/10/16 08:02:39;;;;;;;5.43;4.15;;;;;;;9.55;68.13;101466.31;5011553;28;20034;-45
2021/10/16 08:05:05;;;;;;;6.13;4.57;;;;;;;9.56;68.07;101469.78;5011069;28;20360;-45
2021/10/16 08:07:30;;;;;;;6.10;4.25;;;;;;;9.55;68.15;101471.56;5010387;28;20022;-45
2021/10/16 08:09:56;;;;;;;4.60;4.15;;;;;;;9.56;68.13;101483.84;5006494;28;20361;-46
2021/10/16 08:12:21;;;;;;;5.15;3.70;;;;;;;9.57;68.06;101485.63;5011723;28;20076;-45
2021/10/16 08:14:47;;;;;;;4.30;3.75;;;;;;;9.55;68.33;101487.38;5012748;28;20021;-46
2021/10/16 08:17:12;;;;;;;5.38;4.68;;;;;;;9.57;68.05;101484.75;5010314;28;20393;-45
2021/10/16 08:19:37;;;;;;;4.60;4.18;;;;;;;9.56;68.25;101485.59;5013524;28;20026;-46
2021/10/16 08:22:03;;;;;;;4.28;3.55;;;;;;;9.56;68.37;101490.88;5013828;28;20048;-46
2021/10/16 08:24:28;;;;;;;4.68;4.28;;;;;;;9.56;68.18;101490.88;5010769;28;20022;-46
2021/10/16 08:26:54;;;;;;;4.53;3.88;;;;;;;9.55;68.21;101481.22;5007758;28;20117;-45
2021/10/16 08:29:19;;;;;;;4.25;3.83;;;;;;;9.56;68.25;101482.97;5043487;28;20056;-46
2021/10/16 08:31:44;;;;;;;4.50;3.80;;;;;;;9.57;68.49;101484.75;5012964;28;20113;-46
2021/10/16 08:34:10;;;;;;;3.70;3.15;;;;;;;9.56;68.39;101483.84;5011054;28;20032;-45
2021/10/16 08:36:35;;;;;;;4.68;3.90;;;;;;;9.56;68.21;101483.84;5011491;28;20037;-45
2021/10/16 08:39:00;;;;;;;4.82;3.70;;;;;;;9.55;68.25;101474.19;5011046;28;20511;-46
2021/10/16 08:41:26;;;;;;;5.30;4.15;;;;;;;9.55;68.43;101471.56;5009382;28;20100;-44
2021/10/16 08:43:51;;;;;;;5.28;4.20;;;;;;;9.56;68.43;101468.06;5012149;28;20168;-44
2021/10/16 08:46:17;;;;;;;4.10;3.63;;;;;;;9.56;68.30;101477.69;5012404;28;20021;-45
2021/10/16 08:48:43;;;;;;;6.13;3.78;;;;;;;9.56;68.43;101482.97;5013155;28;20025;-44
2021/10/16 08:51:09;;;;;;;4.50;3.65;;;;;;;9.54;68.38;101476.81;5007082;28;20034;-45
2021/10/16 08:53:34;;;;;;;5.00;4.03;;;;;;;9.54;68.71;101482.94;5014895;28;20404;-44
2021/10/16 08:56:06;;;;;;;5.43;3.78;;;;;;;9.54;68.49;101475.06;5009213;28;20033;-46
2021/10/16 08:58:32;;;;;;;;;;;;;;;9.55;68.56;101474.19;5011245;28;20024;-45
2021/10/16 09:01:00;;;;;;;5.88;3.65;;;;;;;9.54;68.49;101468.91;5011886;28;19914;-44
2021/10/16 09:03:30;;;;;;;4.20;3.55;;;;;;;9.54;68.52;101480.31;5012333;28;20029;-45
2021/10/16 09:06:16;;;;;;;4.38;3.97;;;;;;;9.54;68.48;101471.56;5009608;28;20096;-44
2021/10/16 09:09:03;;;;;;;4.00;3.60;;;;;;;9.52;68.69;101471.53;5012097;28;20542;-44
2021/10/16 09:11:44;;;;;;;5.50;3.33;;;;;;;9.53;68.64;101473.28;5012005;28;20026;-44
2021/10/16 09:14:17;;;;;;;4.03;3.28;;;;;;;9.54;68.73;101472.41;5005628;28;20061;-44
2021/10/16 09:16:44;;;;;;;4.00;3.70;;;;;;;9.53;68.73;101478.56;5011421;28;20371;-44
2021/10/16 09:19:15;;;;;;;3.78;2.75;;;;;;;9.54;68.71;101476.81;5009988;28;20032;-44
2021/10/16 09:21:44;;;;;;;4.13;2.97;;;;;;;9.53;68.85;101473.28;5013258;28;20049;-45
2021/10/16 09:24:13;;;;;;;3.75;3.28;;;;;;;9.54;68.82;101468.91;5015495;28;20033;-44
2021/10/16 09:26:41;;;;;;;3.17;2.88;;;;;;;9.53;68.87;101473.28;5018237;28;20029;-44
2021/10/16 09:29:08;;;;;;;3.78;3.17;;;;;;;9.54;68.81;101469.78;5041849;28;20033;-44
2021/10/16 09:31:46;;;;;;;2.95;2.55;;;;;;;9.53;68.86;101468.03;5015593;28;20045;-44
2021/10/16 09:34:12;;;;;;;3.58;2.92;;;;;;;9.53;68.77;101478.56;5042877;28;20028;-44
2021/10/16 09:36:39;;;;;;;3.28;2.90;;;;;;;9.52;68.75;101486.44;5012905;28;20021;-44
2021/10/16 09:39:06;;;;;;;3.22;2.92;;;;;;;9.54;68.92;101488.22;5014160;28;20026;-43
2021/10/16 09:41:37;;;;;;;3.17;2.88;;;;;;;9.54;68.91;101479.47;5011661;28;20021;-44
2021/10/16 09:44:18;;;;;;;3.42;3.13;;;;;;;9.53;68.86;101462.75;5013827;28;20026;-44
2021/10/16 09:47:15;;;;;;;4.57;2.83;;;;;;;9.54;68.86;101471.56;5013486;28;20029;-49
2021/10/16 09:50:19;;;;;;;3.40;3.00;;;;;;;9.54;68.94;101477.69;5014597;28;20029;-44
2021/10/16 09:52:45;;;;;;;5.93;2.92;;;;;;;9.54;69.04;101471.56;4990542;28;20532;-45
2021/10/16 09:55:13;;;;;;;3.97;2.80;;;;;;;9.52;69.22;101482.06;4988072;28;20030;-44
2021/10/16 09:57:43;;;;;;;3.05;2.72;;;;;;;9.54;69.18;101482.09;4999632;28;20042;-45
2021/10/16 10:00:08;;;;;;;3.20;2.58;;;;;;;9.54;69.31;101482.94;5011339;28;20049;-43
2021/10/16 10:02:34;;;;;;;3.20;2.50;;;;;;;9.54;69.27;101479.47;5012608;28;20064;-44
2021/10/16 10:05:03;;;;;;;3.03;2.30;;;;;;;9.54;69.32;101475.06;5009502;28;20026;-45
2021/10/16 10:07:31;;;;;;;4.10;2.75;;;;;;;9.54;69.27;101479.47;5014964;28;20108;-44
2021/10/16 10:09:57;;;;;;;2.78;2.58;;;;;;;9.55;69.36;101479.47;5009655;28;20025;-45
2021/10/16 10:12:23;;;;;;;3.95;2.90;;;;;;;9.55;69.32;101487.38;5012451;28;20028;-44
2021/10/16 10:14:49;;;;;;;3.10;2.80;;;;;;;9.54;69.43;101480.31;5014644;28;20033;-44
2021/10/16 10:17:22;;;;;;;3.05;2.85;;;;;;;9.55;69.43;101473.31;5011749;28;20096;-44
2021/10/16 10:19:56;;;;;;;2.97;2.72;;;;;;;9.54;69.56;101482.94;5012416;28;20025;-44
2021/10/16 10:22:21;;;;;;;2.40;2.20;;;;;;;9.54;69.61;101482.94;5009430;28;20026;-45
2021/10/16 10:24:53;;;;;;;3.00;2.38;;;;;;;9.55;69.61;101471.56;5010049;28;20057;-45
2021/10/16 10:27:22;;;;;;;3.45;2.47;;;;;;;9.53;69.43;101470.66;5012512;28;20119;-44
2021/10/16 10:29:50;;;;;;;3.13;2.60;;;;;;;9.55;69.30;101466.31;5012468;28;20416;-44
2021/10/16 10:32:25;;;;;;;3.47;2.75;;;;;;;9.56;69.50;101464.53;5011534;28;20026;-45
2021/10/16 10:35:01;;;;;;;4.38;2.67;;;;;;;9.57;69.69;101461.06;5010267;28;20018;-44
2021/10/16 10:37:52;;;;;;;2.67;2.47;;;;;;;9.58;69.44;101465.44;5015377;28;20033;-44
2021/10/16 10:40:22;;;;;;;3.33;2.38;;;;;;;9.58;69.59;101461.06;5009203;28;20017;-44
2021/10/16 10:42:50;;;;;;;4.43;2.60;;;;;;;9.58;69.89;101455.81;5037734;28;20583;-44
2021/10/16 10:45:20;;;;;;;3.33;2.53;;;;;;;9.58;69.54;101454.91;5016318;28;20025;-44
2021/10/16 10:47:59;;;;;;;2.80;2.60;;;;;;;9.58;69.73;101447.91;5013020;28;20034;-44
2021/10/16 10:50:44;;;;;;;4.60;2.83;;;;;;;9.59;69.50;101459.28;5013742;28;20026;-44
2021/10/16 10:53:11;;;;;;;5.95;2.78;;;;;;;9.59;69.66;101457.56;5014250;28;20061;-44
2021/10/16 10:55:53;;;;;;;3.15;2.67;;;;;;;9.60;69.50;101456.69;5012520;28;20021;-44
2021/10/16 10:58:19;;;;;;;5.97;2.72;;;;;;;9.59;69.77;101451.41;5014246;28;20036;-44
2021/10/16 11:00:45;;;;;;;4.05;2.13;;;;;;;9.59;69.62;101452.28;5012122;28;20030;-44
2021/10/16 11:03:30;;;;;;;2.53;2.30;;;;;;;9.59;69.63;101448.75;5012251;28;20025;-44
2021/10/16 11:05:56;;;;;;;2.60;2.25;;;;;;;9.59;69.47;101447.03;5011001;28;20480;-44
2021/10/16 11:08:22;;;;;;;2.80;2.30;;;;;;;9.60;69.57;101442.63;5014081;28;20075;-44
2021/10/16 11:10:48;;;;;;;3.00;2.15;;;;;;;9.58;69.38;101439.09;5012975;28;20472;-44
2021/10/16 11:13:18;;;;;;;2.53;2.33;;;;;;;9.58;69.49;101440.00;5011937;28;20030;-44
2021/10/16 11:15:45;;;;;;;2.40;2.20;;;;;;;9.60;69.57;101437.34;5013137;28;20105;-44
2021/10/16 11:18:14;;;;;;;4.53;2.55;;;;;;;9.59;69.59;101430.31;5010819;28;20026;-44
2021/10/16 11:20:40;;;;;;;2.45;2.10;;;;;;;9.59;69.45;101430.31;5040891;28;20038;-44
2021/10/16 11:23:06;;;;;;;3.03;2.40;;;;;;;9.58;69.66;101432.09;5043804;28;20302;-44
2021/10/16 11:25:33;;;;;;;3.17;1.85;;;;;;;9.59;69.58;101427.69;5013316;28;20026;-44
2021/10/16 11:28:05;;;;;;;2.47;2.10;;;;;;;9.59;69.40;101431.22;5009048;28;20054;-44
2021/10/16 11:30:33;;;;;;;1.75;1.65;;;;;;;9.59;69.63;101425.94;5010763;28;20017;-44